Time,TemperatureF,DewpointF,PressureIn,WindDirection,WindDirectionDegrees,WindSpeedMPH,WindSpeedGustMPH,Humidity,HourlyPrecipIn,Conditions,Clouds,dailyrainin,SoftwareType,DateUTC
2013-10-15 00:01:00,54.7,51.8,17.08,NE,34,0.0,0.0,90,0.00,,SKC,0.00,VWS V14.01,2013-10-15 04:01:00,
2013-10-15 00:06:00,54.5,51.9,17.08,NE,34,0.0,0.0,91,0.00,,SKC,0.00,VWS V14.01,2013-10-15 04:06:00,
2013-10-15 00:11:00,54.4,51.8,17.08,NE,34,0.0,0.0,91,0.00,,SKC,0.00,VWS V14.01,2013-10-15 04:11:00,
2013-10-15 00:16:00,54.2,51.6,17.08,NNE,33,0.0,0.0,91,0.00,,SKC,0.00,VWS V14.01,2013-10-15 04:16:00,
2013-10-15 00:21:00,54.2,51.9,17.08,NNE,33,0.0,0.0,92,0.00,,SKC,0.00,VWS V14.01,2013-10-15 04:21:00,
2013-10-15 00:26:00,54.1,51.8,17.08,NE,34,0.0,0.0,92,0.00,,SKC,0.00,VWS V14.01,2013-10-15 04:26:00,
2013-10-15 00:31:00,54.2,51.9,17.08,NE,34,0.0,0.0,92,0.00,,SKC,0.00,VWS V14.01,2013-10-15 04:31:00,
2013-10-15 00:36:00,54.2,51.9,17.08,NE,34,0.0,0.0,92,0.00,,SKC,0.00,VWS V14.01,2013-10-15 04:36:00,
2013-10-15 00:41:00,54.2,51.9,17.08,NE,34,0.0,0.0,92,0.00,,SKC,0.00,VWS V14.01,2013-10-15 04:41:00,
2013-10-15 00:46:00,54.2,51.9,17.08,NNE,33,0.0,0.0,92,0.00,,SKC,0.00,VWS V14.01,2013-10-15 04:46:00,
2013-10-15 00:51:00,54.3,52.0,17.08,NE,34,0.0,0.0,92,0.00,,SKC,0.00,VWS V14.01,2013-10-15 04:51:00,
2013-10-15 00:56:00,54.4,52.4,17.08,NE,34,0.0,0.0,93,0.00,,SKC,0.00,VWS V14.01,2013-10-15 04:56:00,
2013-10-15 01:01:00,54.6,52.6,17.08,NE,34,0.0,0.0,93,0.00,,SKC,0.00,VWS V14.01,2013-10-15 05:01:00,
2013-10-15 01:06:00,54.8,52.8,17.08,NE,34,0.0,0.0,93,0.00,,SKC,0.00,VWS V14.01,2013-10-15 05:06:00,
2013-10-15 01:11:00,55.0,53.0,17.08,NE,34,0.0,0.0,93,0.00,,SKC,0.00,VWS V14.01,2013-10-15 05:11:00,
2013-10-15 01:16:00,55.1,53.1,17.08,NE,34,0.0,0.0,93,0.00,,SKC,0.00,VWS V14.01,2013-10-15 05:16:00,
2013-10-15 01:21:00,55.2,53.2,17.08,NE,34,0.0,0.0,93,0.00,,SKC,0.00,VWS V14.01,2013-10-15 05:21:00,
2013-10-15 01:26:00,55.3,53.0,17.08,NE,34,0.0,0.0,92,0.00,,SKC,0.00,VWS V14.01,2013-10-15 05:26:00,
2013-10-15 01:31:00,55.3,53.0,17.08,NE,34,0.0,0.0,92,0.00,,SKC,0.00,VWS V14.01,2013-10-15 05:31:00,
2013-10-15 01:36:00,55.4,53.1,17.08,NE,34,0.0,0.0,92,0.00,,SKC,0.00,VWS V14.01,2013-10-15 05:36:00,
2013-10-15 01:41:00,55.4,53.1,17.08,NNE,33,0.0,0.0,92,0.00,,SKC,0.00,VWS V14.01,2013-10-15 05:41:00,
2013-10-15 01:46:00,55.5,53.2,17.08,NE,34,0.0,0.0,92,0.00,,SKC,0.00,VWS V14.01,2013-10-15 05:46:00,
2013-10-15 01:51:00,55.6,53.3,17.08,NE,34,0.0,0.0,92,0.00,,SKC,0.00,VWS V14.01,2013-10-15 05:51:00,
2013-10-15 01:56:00,55.6,53.3,17.08,NE,34,0.0,0.0,92,0.00,,SKC,0.00,VWS V14.01,2013-10-15 05:56:00,
2013-10-15 02:00:00,55.7,53.4,17.08,NNE,33,0.0,0.0,92,0.00,,SKC,0.00,VWS V14.01,2013-10-15 06:00:00,
2013-10-15 02:05:00,55.7,53.4,17.08,NE,34,0.0,0.0,92,0.00,,SKC,0.00,VWS V14.01,2013-10-15 06:05:00,
2013-10-15 02:10:00,55.7,53.4,17.08,NE,34,0.0,0.0,92,0.00,,SKC,0.00,VWS V14.01,2013-10-15 06:10:00,
2013-10-15 02:15:00,55.7,53.4,17.08,NE,34,0.0,0.0,92,0.00,,SKC,0.00,VWS V14.01,2013-10-15 06:15:00,
2013-10-15 02:20:00,55.7,53.1,17.08,NE,34,0.0,0.0,91,0.00,,SKC,0.00,VWS V14.01,2013-10-15 06:20:00,
2013-10-15 02:25:00,55.7,53.1,17.08,NNE,33,0.0,0.0,91,0.00,,SKC,0.00,VWS V14.01,2013-10-15 06:25:00,
2013-10-15 02:30:00,55.8,53.5,17.08,NE,34,0.0,0.0,92,0.00,,SKC,0.00,VWS V14.01,2013-10-15 06:30:00,
2013-10-15 02:35:00,55.8,53.5,17.08,NE,34,0.0,0.0,92,0.00,,SKC,0.00,VWS V14.01,2013-10-15 06:35:00,
2013-10-15 02:40:00,55.8,53.5,17.08,NNE,33,0.0,0.0,92,0.00,,SKC,0.00,VWS V14.01,2013-10-15 06:40:00,
2013-10-15 02:45:00,55.8,53.5,17.08,NE,34,0.0,0.0,92,0.00,,SKC,0.00,VWS V14.01,2013-10-15 06:45:00,
2013-10-15 02:50:00,55.8,53.5,17.08,NE,34,0.0,0.0,92,0.00,,SKC,0.00,VWS V14.01,2013-10-15 06:50:00,
2013-10-15 02:55:00,55.8,53.5,17.08,NE,34,0.0,0.0,92,0.00,,SKC,0.00,VWS V14.01,2013-10-15 06:55:00,
2013-10-15 03:00:00,55.8,53.5,17.08,NE,34,0.0,0.0,92,0.00,,SKC,0.00,VWS V14.01,2013-10-15 07:00:00,
2013-10-15 03:05:00,55.8,53.5,17.08,NE,34,0.0,0.0,92,0.00,,SKC,0.00,VWS V14.01,2013-10-15 07:05:00,
2013-10-15 03:10:00,55.9,53.6,17.08,NNE,33,0.0,0.0,92,0.00,,SKC,0.00,VWS V14.01,2013-10-15 07:10:00,
2013-10-15 03:15:00,55.8,53.5,17.08,NNE,33,0.0,0.0,92,0.00,,SKC,0.00,VWS V14.01,2013-10-15 07:15:00,
2013-10-15 03:20:00,55.8,53.5,17.08,NE,34,0.0,0.0,92,0.00,,SKC,0.00,VWS V14.01,2013-10-15 07:20:00,
2013-10-15 03:25:00,55.8,53.5,17.08,NE,34,0.0,0.0,92,0.00,,SKC,0.00,VWS V14.01,2013-10-15 07:25:00,
2013-10-15 03:30:00,55.9,53.6,17.08,NNE,33,0.0,0.0,92,0.00,,SKC,0.00,VWS V14.01,2013-10-15 07:30:00,
2013-10-15 03:35:00,55.9,53.6,17.08,NE,34,0.0,0.0,92,0.00,,SKC,0.00,VWS V14.01,2013-10-15 07:35:00,
2013-10-15 03:40:00,55.9,53.6,17.08,NNE,33,0.0,0.0,92,0.00,,SKC,0.00,VWS V14.01,2013-10-15 07:40:00,
2013-10-15 03:45:00,55.9,53.6,17.08,NE,34,0.0,0.0,92,0.00,,SKC,0.00,VWS V14.01,2013-10-15 07:45:00,
2013-10-15 03:50:00,55.8,53.5,17.08,NE,34,0.0,0.0,92,0.00,,SKC,0.00,VWS V14.01,2013-10-15 07:50:00,
2013-10-15 03:55:00,55.8,53.5,17.08,NE,34,0.0,0.0,92,0.00,,SKC,0.00,VWS V14.01,2013-10-15 07:55:00,
2013-10-15 04:00:00,55.8,53.5,17.08,NE,34,0.0,0.0,92,0.00,,SKC,0.00,VWS V14.01,2013-10-15 08:00:00,
2013-10-15 04:05:00,55.7,53.4,17.08,NE,34,0.0,0.0,92,0.00,,SKC,0.00,VWS V14.01,2013-10-15 08:05:00,
2013-10-15 04:10:00,55.7,53.4,17.08,NE,34,0.0,0.0,92,0.00,,SKC,0.00,VWS V14.01,2013-10-15 08:10:00,
2013-10-15 04:15:00,55.6,53.3,17.08,NE,34,0.0,0.0,92,0.00,,SKC,0.00,VWS V14.01,2013-10-15 08:15:00,
2013-10-15 04:20:00,55.5,53.2,17.08,NE,34,0.0,0.0,92,0.00,,SKC,0.00,VWS V14.01,2013-10-15 08:20:00,
2013-10-15 04:25:00,55.4,53.1,17.08,NE,34,0.0,0.0,92,0.00,,SKC,0.00,VWS V14.01,2013-10-15 08:25:00,
2013-10-15 04:30:00,55.2,52.9,17.08,NE,34,0.0,0.0,92,0.00,,SKC,0.00,VWS V14.01,2013-10-15 08:30:00,
2013-10-15 04:35:00,55.1,52.8,17.08,NE,34,0.0,0.0,92,0.00,,SKC,0.00,VWS V14.01,2013-10-15 08:35:00,
2013-10-15 04:40:00,55.0,52.7,17.08,NE,34,0.0,0.0,92,0.00,,SKC,0.00,VWS V14.01,2013-10-15 08:40:00,
2013-10-15 04:45:00,54.8,52.5,17.08,NE,34,0.0,0.0,92,0.00,,SKC,0.00,VWS V14.01,2013-10-15 08:45:00,
2013-10-15 04:50:00,54.8,52.5,17.08,NE,34,0.0,0.0,92,0.00,,SKC,0.00,VWS V14.01,2013-10-15 08:50:00,
2013-10-15 04:55:00,54.6,52.6,17.08,NNE,33,0.0,0.0,93,0.00,,SKC,0.00,VWS V14.01,2013-10-15 08:55:00,
2013-10-15 05:00:00,54.5,52.5,17.08,NNE,33,0.0,0.0,93,0.00,,SKC,0.00,VWS V14.01,2013-10-15 09:00:00,
2013-10-15 05:05:00,54.4,52.4,17.08,NNE,33,0.0,0.0,93,0.00,,SKC,0.00,VWS V14.01,2013-10-15 09:05:00,
2013-10-15 05:10:00,54.3,52.3,17.08,NE,34,0.0,0.0,93,0.00,,SKC,0.00,VWS V14.01,2013-10-15 09:10:00,
2013-10-15 05:15:00,54.2,52.2,17.08,NE,34,0.0,0.0,93,0.00,,SKC,0.00,VWS V14.01,2013-10-15 09:15:00,
2013-10-15 05:20:00,54.2,52.2,17.08,NE,34,0.0,0.0,93,0.00,,SKC,0.00,VWS V14.01,2013-10-15 09:20:00,
2013-10-15 05:25:00,54.1,52.1,17.08,NE,34,0.0,0.0,93,0.00,,SKC,0.00,VWS V14.01,2013-10-15 09:25:00,
2013-10-15 05:30:00,54.0,52.0,17.08,NNE,33,0.0,0.0,93,0.00,,SKC,0.00,VWS V14.01,2013-10-15 09:30:00,
2013-10-15 05:35:00,53.9,51.9,17.08,NE,34,0.0,0.0,93,0.00,,SKC,0.00,VWS V14.01,2013-10-15 09:35:00,
2013-10-15 05:40:00,53.7,51.7,17.08,NE,34,0.0,0.0,93,0.00,,SKC,0.00,VWS V14.01,2013-10-15 09:40:00,
2013-10-15 05:45:00,53.5,51.5,17.08,NE,34,0.0,0.0,93,0.00,,SKC,0.00,VWS V14.01,2013-10-15 09:45:00,
2013-10-15 05:50:00,53.4,51.4,17.08,NE,34,0.0,0.0,93,0.00,,SKC,0.00,VWS V14.01,2013-10-15 09:50:00,
2013-10-15 05:55:00,53.3,51.3,17.08,NNE,33,0.0,0.0,93,0.00,,SKC,0.00,VWS V14.01,2013-10-15 09:55:00,
2013-10-15 06:00:00,53.2,51.2,17.08,NE,34,0.0,0.0,93,0.00,,SKC,0.00,VWS V14.01,2013-10-15 10:00:00,
2013-10-15 06:05:00,53.0,51.0,17.08,NE,34,0.0,0.0,93,0.00,,SKC,0.00,VWS V14.01,2013-10-15 10:05:00,
2013-10-15 06:10:00,53.0,51.0,17.08,NNE,33,0.0,0.0,93,0.00,,SKC,0.00,VWS V14.01,2013-10-15 10:10:00,
2013-10-15 06:15:00,53.0,51.0,17.08,NNE,33,0.0,0.0,93,0.00,,SKC,0.00,VWS V14.01,2013-10-15 10:15:00,
2013-10-15 06:20:00,53.0,51.3,26.68,NE,34,0.0,0.0,94,0.00,,SKC,0.00,VWS V14.01,2013-10-15 10:20:00,
2013-10-15 06:24:00,53.0,51.3,26.68,NE,34,0.0,0.0,94,0.00,,SKC,0.00,VWS V14.01,2013-10-15 10:24:00,
2013-10-15 06:29:00,53.0,51.3,26.68,NE,34,0.0,0.0,94,0.00,,SKC,0.00,VWS V14.01,2013-10-15 10:29:00,
2013-10-15 06:34:00,53.0,51.3,26.68,NNE,33,0.0,0.0,94,0.00,,SKC,0.00,VWS V14.01,2013-10-15 10:34:00,
2013-10-15 06:39:00,53.0,51.3,26.68,NNE,33,0.0,0.0,94,0.00,,SKC,0.00,VWS V14.01,2013-10-15 10:39:00,
2013-10-15 06:44:00,52.9,51.2,26.68,NE,34,0.0,0.0,94,0.00,,SKC,0.00,VWS V14.01,2013-10-15 10:44:00,
2013-10-15 06:49:00,52.8,51.1,26.68,NE,34,0.0,0.0,94,0.00,,SKC,0.00,VWS V14.01,2013-10-15 10:49:00,
2013-10-15 06:54:00,52.7,51.0,26.68,NNE,33,0.0,0.0,94,0.00,,SKC,0.00,VWS V14.01,2013-10-15 10:54:00,
2013-10-15 06:59:00,52.5,50.8,26.68,NE,34,0.0,0.0,94,0.00,,SKC,0.00,VWS V14.01,2013-10-15 10:59:00,
2013-10-15 07:04:00,52.5,50.8,26.68,NNE,33,0.0,0.0,94,0.00,,SKC,0.00,VWS V14.01,2013-10-15 11:04:00,
2013-10-15 07:09:00,52.5,50.8,26.68,NNE,33,0.0,0.0,94,0.00,,SKC,0.00,VWS V14.01,2013-10-15 11:09:00,
2013-10-15 07:14:00,52.4,50.7,26.68,NE,34,0.0,0.0,94,0.00,,SKC,0.00,VWS V14.01,2013-10-15 11:14:00,
2013-10-15 07:19:00,52.3,50.6,26.68,NE,34,0.0,0.0,94,0.00,,SKC,0.00,VWS V14.01,2013-10-15 11:19:00,
2013-10-15 07:24:00,52.3,50.6,26.68,NE,34,0.0,0.0,94,0.00,,SKC,0.00,VWS V14.01,2013-10-15 11:24:00,
2013-10-15 07:29:00,52.5,50.8,26.68,NNE,33,0.0,0.0,94,0.00,,SKC,0.00,VWS V14.01,2013-10-15 11:29:00,
2013-10-15 07:34:00,52.6,50.9,26.68,NNE,33,0.0,0.0,94,0.00,,SKC,0.00,VWS V14.01,2013-10-15 11:34:00,
2013-10-15 07:39:00,52.8,51.1,26.68,NNE,33,0.0,0.0,94,0.00,,SKC,0.00,VWS V14.01,2013-10-15 11:39:00,
2013-10-15 07:44:00,52.9,51.2,26.68,NNE,33,0.0,0.0,94,0.00,,SKC,0.00,VWS V14.01,2013-10-15 11:44:00,
2013-10-15 07:49:00,53.0,51.6,26.68,NE,34,0.0,0.0,95,0.00,,SKC,0.00,VWS V14.01,2013-10-15 11:49:00,
2013-10-15 07:54:00,53.1,51.7,26.68,NE,34,0.0,0.0,95,0.00,,SKC,0.00,VWS V14.01,2013-10-15 11:54:00,
2013-10-15 07:59:00,53.2,51.8,26.68,NE,34,0.0,0.0,95,0.00,,SKC,0.00,VWS V14.01,2013-10-15 11:59:00,
2013-10-15 08:04:00,53.3,51.9,26.68,NE,34,0.0,0.0,95,0.00,,SKC,0.00,VWS V14.01,2013-10-15 12:04:00,
2013-10-15 08:09:00,53.3,51.9,26.68,NE,34,0.0,0.0,95,0.00,,SKC,0.00,VWS V14.01,2013-10-15 12:09:00,
2013-10-15 08:14:00,53.3,51.9,26.68,NE,34,0.0,0.0,95,0.00,,SKC,0.00,VWS V14.01,2013-10-15 12:14:00,
2013-10-15 08:19:00,53.3,51.9,26.68,NE,34,0.0,0.0,95,0.00,,SKC,0.00,VWS V14.01,2013-10-15 12:19:00,
2013-10-15 08:24:00,53.3,51.6,26.68,NE,34,0.0,0.0,94,0.00,,SKC,0.00,VWS V14.01,2013-10-15 12:24:00,
2013-10-15 08:29:00,53.3,51.6,26.68,NE,34,0.0,0.0,94,0.00,,SKC,0.00,VWS V14.01,2013-10-15 12:29:00,
2013-10-15 08:34:00,53.5,51.8,26.68,NE,34,0.0,0.0,94,0.00,,SKC,0.00,VWS V14.01,2013-10-15 12:34:00,
2013-10-15 08:39:00,53.5,51.8,26.68,NNE,33,0.0,0.0,94,0.00,,SKC,0.00,VWS V14.01,2013-10-15 12:39:00,
2013-10-15 08:44:00,53.6,51.9,26.68,NNE,33,0.0,0.0,94,0.00,,SKC,0.00,VWS V14.01,2013-10-15 12:44:00,
2013-10-15 08:49:00,53.8,52.1,26.68,NE,34,0.0,0.0,94,0.00,,SKC,0.00,VWS V14.01,2013-10-15 12:49:00,
2013-10-15 08:54:00,53.9,52.2,26.68,NNE,33,0.0,0.0,94,0.00,,SKC,0.00,VWS V14.01,2013-10-15 12:54:00,
2013-10-15 08:59:00,54.0,52.3,26.68,NE,34,0.0,0.0,94,0.00,,SKC,0.00,VWS V14.01,2013-10-15 12:59:00,
2013-10-15 09:04:00,54.2,52.5,26.68,NE,34,0.0,0.0,94,0.00,,SKC,0.00,VWS V14.01,2013-10-15 13:04:00,
2013-10-15 09:09:00,54.4,52.4,26.68,NNE,33,0.0,0.0,93,0.00,,SKC,0.00,VWS V14.01,2013-10-15 13:09:00,
2013-10-15 09:14:00,54.6,52.3,26.68,NNE,33,0.0,0.0,92,0.00,,SKC,0.00,VWS V14.01,2013-10-15 13:14:00,
2013-10-15 09:19:00,54.9,52.6,26.68,NE,34,0.0,0.0,92,0.00,,SKC,0.00,VWS V14.01,2013-10-15 13:19:00,
2013-10-15 09:24:00,55.1,52.5,26.68,NNE,33,0.0,0.0,91,0.00,,SKC,0.00,VWS V14.01,2013-10-15 13:24:00,
2013-10-15 09:29:00,55.4,52.5,26.68,NE,34,0.0,0.0,90,0.00,,SKC,0.00,VWS V14.01,2013-10-15 13:29:00,
2013-10-15 09:34:00,55.6,52.7,26.68,NE,34,0.0,0.0,90,0.00,,SKC,0.00,VWS V14.01,2013-10-15 13:34:00,
2013-10-15 09:39:00,55.9,52.7,26.68,NE,34,0.0,0.0,89,0.00,,SKC,0.00,VWS V14.01,2013-10-15 13:39:00,
2013-10-15 09:44:00,56.2,53.0,26.68,NE,34,0.0,1.0,89,0.00,,SKC,0.00,VWS V14.01,2013-10-15 13:44:00,
2013-10-15 09:49:00,56.4,52.9,26.68,NNE,33,0.0,2.0,88,0.00,,SKC,0.00,VWS V14.01,2013-10-15 13:49:00,
2013-10-15 09:54:00,56.6,53.1,26.68,NE,34,0.0,0.0,88,0.00,,SKC,0.00,VWS V14.01,2013-10-15 13:54:00,
2013-10-15 09:59:00,56.9,53.1,26.68,NE,34,0.0,1.0,87,0.00,,SKC,0.00,VWS V14.01,2013-10-15 13:59:00,
2013-10-15 10:04:00,57.1,53.3,26.68,NE,34,0.0,0.0,87,0.00,,SKC,0.00,VWS V14.01,2013-10-15 14:04:00,
2013-10-15 10:09:00,57.3,53.2,26.68,NNE,33,2.0,2.0,86,0.00,,SKC,0.00,VWS V14.01,2013-10-15 14:09:00,
2013-10-15 10:14:00,57.4,53.2,26.68,NNE,33,0.0,1.0,86,0.00,,SKC,0.00,VWS V14.01,2013-10-15 14:14:00,
2013-10-15 10:19:00,57.5,53.3,26.68,NE,34,0.0,0.0,86,0.00,,SKC,0.00,VWS V14.01,2013-10-15 14:19:00,
2013-10-15 10:24:00,57.8,53.3,26.68,NNE,33,0.0,0.0,85,0.00,,SKC,0.00,VWS V14.01,2013-10-15 14:24:00,
2013-10-15 10:29:00,58.1,53.6,26.68,NE,34,1.0,1.0,85,0.00,,SKC,0.00,VWS V14.01,2013-10-15 14:29:00,
2013-10-15 10:34:00,58.4,53.9,26.68,NE,34,3.0,3.0,85,0.00,,SKC,0.00,VWS V14.01,2013-10-15 14:34:00,
2013-10-15 10:39:00,58.5,53.7,26.68,NNE,27,4.0,4.0,84,0.00,,SKC,0.00,VWS V14.01,2013-10-15 14:39:00,
2013-10-15 10:44:00,58.4,53.6,26.68,NNE,26,1.0,1.0,84,0.00,,SKC,0.00,VWS V14.01,2013-10-15 14:44:00,
2013-10-15 10:49:00,58.8,54.0,26.68,NNE,27,3.0,3.0,84,0.00,,SKC,0.00,VWS V14.01,2013-10-15 14:49:00,
2013-10-15 10:54:00,59.0,54.2,26.68,NNE,26,2.0,2.0,84,0.00,,SKC,0.00,VWS V14.01,2013-10-15 14:54:00,
2013-10-15 10:59:00,59.0,54.2,26.68,NNE,26,0.0,1.0,84,0.00,,SKC,0.00,VWS V14.01,2013-10-15 14:59:00,
2013-10-15 11:04:00,59.0,53.8,26.68,NNE,26,1.0,1.0,83,0.00,,SKC,0.00,VWS V14.01,2013-10-15 15:04:00,
2013-10-15 11:09:00,59.0,53.8,26.68,NNE,26,0.0,2.0,83,0.00,,SKC,0.00,VWS V14.01,2013-10-15 15:09:00,
2013-10-15 11:14:00,59.0,53.5,26.68,NNE,26,2.0,2.0,82,0.00,,SKC,0.00,VWS V14.01,2013-10-15 15:14:00,
2013-10-15 11:19:00,59.0,53.8,26.68,NNE,25,2.0,2.0,83,0.00,,SKC,0.00,VWS V14.01,2013-10-15 15:19:00,
2013-10-15 11:24:00,59.2,53.7,26.68,NNE,26,2.0,2.0,82,0.00,,SKC,0.00,VWS V14.01,2013-10-15 15:24:00,
2013-10-15 11:29:00,59.5,54.3,26.68,NNE,26,4.0,4.0,83,0.00,,SKC,0.00,VWS V14.01,2013-10-15 15:29:00,
2013-10-15 11:34:00,60.4,54.9,26.68,NNE,24,0.0,0.0,82,0.00,,SKC,0.00,VWS V14.01,2013-10-15 15:34:00,
2013-10-15 11:39:00,61.0,55.1,26.68,NNE,24,4.0,4.0,81,0.00,,SKC,0.00,VWS V14.01,2013-10-15 15:39:00,
2013-10-15 11:44:00,61.3,55.1,26.68,NNW,347,3.0,3.0,80,0.00,,SKC,0.00,VWS V14.01,2013-10-15 15:44:00,
2013-10-15 11:49:00,61.1,54.9,26.68,NNE,19,3.0,3.0,80,0.00,,SKC,0.00,VWS V14.01,2013-10-15 15:49:00,
2013-10-15 11:54:00,61.7,55.8,26.68,NNE,19,0.0,2.0,81,0.00,,SKC,0.00,VWS V14.01,2013-10-15 15:54:00,
2013-10-15 11:59:00,62.0,55.1,26.68,North,355,3.0,6.0,78,0.00,,SKC,0.00,VWS V14.01,2013-10-15 15:59:00,
2013-10-15 12:04:00,62.2,56.0,26.68,SE,128,1.0,1.0,80,0.00,,SKC,0.00,VWS V14.01,2013-10-15 16:04:00,
2013-10-15 12:09:00,62.6,55.7,26.68,North,360,3.0,3.0,78,0.00,,SKC,0.00,VWS V14.01,2013-10-15 16:09:00,
2013-10-15 12:14:00,63.1,56.1,26.68,NNE,25,1.0,2.0,78,0.00,,SKC,0.00,VWS V14.01,2013-10-15 16:14:00,
2013-10-15 12:19:00,63.5,56.2,26.68,ENE,57,0.0,0.0,77,0.00,,SKC,0.00,VWS V14.01,2013-10-15 16:19:00,
2013-10-15 12:24:00,63.8,56.5,26.68,NE,46,0.0,0.0,77,0.00,,SKC,0.00,VWS V14.01,2013-10-15 16:24:00,
2013-10-15 12:29:00,64.2,56.1,26.68,NE,42,2.0,4.0,75,0.00,,SKC,0.00,VWS V14.01,2013-10-15 16:29:00,
2013-10-15 12:33:00,64.2,56.1,26.68,North,360,5.0,5.0,75,0.00,,SKC,0.00,VWS V14.01,2013-10-15 16:33:00,
2013-10-15 12:38:00,64.3,56.6,26.68,NNE,32,1.0,5.0,76,0.00,,SKC,0.00,VWS V14.01,2013-10-15 16:38:00,
2013-10-15 12:43:00,64.5,56.4,26.68,NNE,12,2.0,6.0,75,0.00,,SKC,0.00,VWS V14.01,2013-10-15 16:43:00,
2013-10-15 12:48:00,64.6,56.5,26.68,NNE,14,1.0,3.0,75,0.00,,SKC,0.00,VWS V14.01,2013-10-15 16:48:00,
2013-10-15 12:53:00,65.2,56.7,26.68,North,355,3.0,5.0,74,0.00,,SKC,0.00,VWS V14.01,2013-10-15 16:53:00,
2013-10-15 12:58:00,65.6,57.1,26.68,North,11,2.0,2.0,74,0.00,,SKC,0.00,VWS V14.01,2013-10-15 16:58:00,
2013-10-15 13:03:00,66.4,57.5,26.68,NNE,14,2.0,6.0,73,0.00,,SKC,0.00,VWS V14.01,2013-10-15 17:03:00,
2013-10-15 13:08:00,67.0,57.7,26.68,SSE,152,4.0,5.0,72,0.00,,SKC,0.00,VWS V14.01,2013-10-15 17:08:00,
2013-10-15 13:13:00,67.0,56.9,26.68,ESE,114,0.0,0.0,70,0.00,,SKC,0.00,VWS V14.01,2013-10-15 17:13:00,
2013-10-15 13:18:00,67.7,58.0,26.68,South,184,0.0,0.0,71,0.00,,SKC,0.00,VWS V14.01,2013-10-15 17:18:00,
2013-10-15 13:23:00,68.5,58.3,26.68,North,5,1.0,5.0,70,0.00,,SKC,0.00,VWS V14.01,2013-10-15 17:23:00,
2013-10-15 13:28:00,68.2,57.7,26.68,NNE,23,0.0,2.0,69,0.00,,SKC,0.00,VWS V14.01,2013-10-15 17:28:00,
2013-10-15 13:33:00,68.4,57.8,26.68,NNW,346,2.0,4.0,69,0.00,,SKC,0.00,VWS V14.01,2013-10-15 17:33:00,
2013-10-15 13:38:00,68.9,57.9,26.68,North,355,0.0,1.0,68,0.00,,SKC,0.00,VWS V14.01,2013-10-15 17:38:00,
2013-10-15 13:43:00,69.3,58.3,26.68,North,355,0.0,3.0,68,0.00,,SKC,0.00,VWS V14.01,2013-10-15 17:43:00,
2013-10-15 13:48:00,69.2,58.2,26.68,NE,51,3.0,3.0,68,0.00,,SKC,0.00,VWS V14.01,2013-10-15 17:48:00,
2013-10-15 13:53:00,68.6,57.6,26.68,NNE,26,3.0,5.0,68,0.00,,SKC,0.00,VWS V14.01,2013-10-15 17:53:00,
2013-10-15 13:58:00,68.3,57.3,26.68,North,5,2.0,6.0,68,0.00,,SKC,0.00,VWS V14.01,2013-10-15 17:58:00,
2013-10-15 14:03:00,68.5,57.5,26.68,NNE,27,3.0,3.0,68,0.00,,SKC,0.00,VWS V14.01,2013-10-15 18:03:00,
2013-10-15 14:08:00,69.1,57.7,26.68,NNE,12,5.0,5.0,67,0.00,,SKC,0.00,VWS V14.01,2013-10-15 18:08:00,
2013-10-15 14:13:00,68.7,57.7,26.68,North,5,0.0,0.0,68,0.00,,SKC,0.00,VWS V14.01,2013-10-15 18:13:00,
2013-10-15 14:18:00,69.0,58.0,26.68,NNE,17,0.0,2.0,68,0.00,,SKC,0.00,VWS V14.01,2013-10-15 18:18:00,
2013-10-15 14:23:00,69.0,57.6,26.68,NE,38,0.0,4.0,67,0.00,,SKC,0.00,VWS V14.01,2013-10-15 18:23:00,
2013-10-15 14:28:00,68.8,58.2,26.68,ENE,69,0.0,1.0,69,0.00,,SKC,0.00,VWS V14.01,2013-10-15 18:28:00,
2013-10-15 14:33:00,69.2,57.8,26.68,ENE,67,1.0,1.0,67,0.00,,SKC,0.00,VWS V14.01,2013-10-15 18:33:00,
2013-10-15 14:38:00,69.4,57.6,26.68,ENE,68,1.0,3.0,66,0.00,,SKC,0.00,VWS V14.01,2013-10-15 18:38:00,
2013-10-15 14:43:00,69.5,58.5,26.68,ENE,67,0.0,1.0,68,0.00,,SKC,0.00,VWS V14.01,2013-10-15 18:43:00,
2013-10-15 14:48:00,69.8,58.8,26.68,ENE,69,0.0,0.0,68,0.00,,SKC,0.00,VWS V14.01,2013-10-15 18:48:00,
2013-10-15 14:53:00,69.4,58.0,26.68,ESE,113,0.0,0.0,67,0.00,,SKC,0.00,VWS V14.01,2013-10-15 18:53:00,
2013-10-15 14:58:00,69.1,57.7,26.68,ESE,114,0.0,3.0,67,0.00,,SKC,0.00,VWS V14.01,2013-10-15 18:58:00,
2013-10-15 15:03:00,68.8,57.8,26.68,East,101,3.0,3.0,68,0.00,,SKC,0.00,VWS V14.01,2013-10-15 19:03:00,
2013-10-15 15:08:00,69.1,58.1,26.68,NE,54,0.0,2.0,68,0.00,,SKC,0.00,VWS V14.01,2013-10-15 19:08:00,
2013-10-15 15:13:00,69.3,58.7,26.68,ENE,76,1.0,3.0,69,0.00,,SKC,0.00,VWS V14.01,2013-10-15 19:13:00,
2013-10-15 15:18:00,69.5,58.5,26.68,ENE,76,0.0,0.0,68,0.00,,SKC,0.00,VWS V14.01,2013-10-15 19:18:00,
2013-10-15 15:23:00,70.3,58.8,26.68,NE,56,0.0,0.0,67,0.00,,SKC,0.00,VWS V14.01,2013-10-15 19:23:00,
2013-10-15 15:28:00,70.5,58.2,26.68,NNE,32,1.0,1.0,65,0.00,,SKC,0.00,VWS V14.01,2013-10-15 19:28:00,
2013-10-15 15:33:00,70.6,59.1,26.68,NNE,32,0.0,0.0,67,0.00,,SKC,0.00,VWS V14.01,2013-10-15 19:33:00,
2013-10-15 15:38:00,70.4,58.5,26.68,NNE,32,0.0,0.0,66,0.00,,SKC,0.00,VWS V14.01,2013-10-15 19:38:00,
2013-10-15 15:43:00,69.9,58.0,26.68,NNE,32,1.0,2.0,66,0.00,,SKC,0.00,VWS V14.01,2013-10-15 19:43:00,
2013-10-15 15:48:00,69.6,58.2,26.68,North,350,0.0,1.0,67,0.00,,SKC,0.00,VWS V14.01,2013-10-15 19:48:00,
2013-10-15 15:53:00,69.2,57.8,26.68,North,350,0.0,0.0,67,0.00,,SKC,0.00,VWS V14.01,2013-10-15 19:53:00,
2013-10-15 15:58:00,68.8,57.8,26.68,North,355,1.0,1.0,68,0.00,,SKC,0.00,VWS V14.01,2013-10-15 19:58:00,
2013-10-15 16:03:00,68.8,58.2,26.68,North,355,0.0,0.0,69,0.00,,SKC,0.00,VWS V14.01,2013-10-15 20:03:00,
2013-10-15 16:08:00,68.8,58.2,26.68,North,355,1.0,1.0,69,0.00,,SKC,0.00,VWS V14.01,2013-10-15 20:08:00,
2013-10-15 16:13:00,68.9,59.1,26.68,North,355,0.0,1.0,71,0.00,,SKC,0.00,VWS V14.01,2013-10-15 20:13:00,
2013-10-15 16:18:00,68.6,58.4,26.68,NNE,17,0.0,1.0,70,0.00,,SKC,0.00,VWS V14.01,2013-10-15 20:18:00,
2013-10-15 16:23:00,68.4,58.2,26.68,NNE,17,0.0,0.0,70,0.00,,SKC,0.00,VWS V14.01,2013-10-15 20:23:00,
2013-10-15 16:28:00,68.1,58.0,26.68,NE,46,0.0,0.0,70,0.00,,SKC,0.00,VWS V14.01,2013-10-15 20:28:00,
2013-10-15 16:33:00,68.0,58.3,26.68,NE,44,0.0,0.0,71,0.00,,SKC,0.00,VWS V14.01,2013-10-15 20:33:00,
2013-10-15 16:38:00,68.1,58.0,26.68,NE,44,1.0,1.0,70,0.00,,SKC,0.00,VWS V14.01,2013-10-15 20:38:00,
2013-10-15 16:43:00,68.0,58.3,26.68,NE,44,1.0,2.0,71,0.00,,SKC,0.00,VWS V14.01,2013-10-15 20:43:00,
2013-10-15 16:48:00,68.1,58.0,26.68,NNE,23,3.0,3.0,70,0.00,,SKC,0.00,VWS V14.01,2013-10-15 20:48:00,
2013-10-15 16:53:00,67.9,58.2,26.68,NNE,14,1.0,1.0,71,0.00,,SKC,0.00,VWS V14.01,2013-10-15 20:53:00,
2013-10-15 16:58:00,67.7,58.0,26.68,NNE,14,3.0,3.0,71,0.00,,SKC,0.00,VWS V14.01,2013-10-15 20:58:00,
2013-10-15 17:03:00,67.5,58.2,26.68,NNE,14,0.0,0.0,72,0.00,,SKC,0.00,VWS V14.01,2013-10-15 21:03:00,
2013-10-15 17:08:00,67.2,58.3,26.68,NNE,13,0.0,0.0,73,0.00,,SKC,0.00,VWS V14.01,2013-10-15 21:08:00,
2013-10-15 17:13:00,66.8,57.9,26.68,NNE,13,0.0,0.0,73,0.00,,SKC,0.00,VWS V14.01,2013-10-15 21:13:00,
2013-10-15 17:18:00,66.6,57.7,26.68,NNE,24,1.0,3.0,73,0.00,,SKC,0.00,VWS V14.01,2013-10-15 21:18:00,
2013-10-15 17:23:00,66.3,57.8,26.68,NNE,24,0.0,0.0,74,0.00,,SKC,0.00,VWS V14.01,2013-10-15 21:23:00,
2013-10-15 17:28:00,66.2,58.0,26.68,NNE,24,0.0,0.0,75,0.00,,SKC,0.00,VWS V14.01,2013-10-15 21:28:00,
2013-10-15 17:33:00,66.1,57.6,26.68,NNE,24,0.0,0.0,74,0.00,,SKC,0.00,VWS V14.01,2013-10-15 21:33:00,
2013-10-15 17:38:00,66.1,58.0,26.68,NNE,24,0.0,0.0,75,0.00,,SKC,0.00,VWS V14.01,2013-10-15 21:38:00,
2013-10-15 17:43:00,65.9,57.8,26.68,NNE,24,0.0,0.0,75,0.00,,SKC,0.00,VWS V14.01,2013-10-15 21:43:00,
2013-10-15 17:48:00,65.9,57.8,26.68,NNE,24,0.0,1.0,75,0.00,,SKC,0.00,VWS V14.01,2013-10-15 21:48:00,
2013-10-15 17:53:00,65.9,58.1,26.68,NNE,24,0.0,0.0,76,0.00,,SKC,0.00,VWS V14.01,2013-10-15 21:53:00,
2013-10-15 17:58:00,65.7,57.6,26.68,NNE,24,0.0,1.0,75,0.00,,SKC,0.00,VWS V14.01,2013-10-15 21:58:00,
2013-10-15 18:03:00,65.4,57.7,26.68,NNE,24,0.0,1.0,76,0.00,,SKC,0.00,VWS V14.01,2013-10-15 22:03:00,
2013-10-15 18:08:00,65.3,57.5,26.68,NNE,24,0.0,0.0,76,0.00,,SKC,0.00,VWS V14.01,2013-10-15 22:08:00,
2013-10-15 18:13:00,65.1,57.4,26.68,NNE,24,0.0,0.0,76,0.00,,SKC,0.00,VWS V14.01,2013-10-15 22:13:00,
2013-10-15 18:18:00,64.9,57.5,26.68,NNE,24,0.0,0.0,77,0.00,,SKC,0.00,VWS V14.01,2013-10-15 22:18:00,
2013-10-15 18:23:00,64.7,58.0,26.68,NNE,24,0.0,0.0,79,0.00,,SKC,0.00,VWS V14.01,2013-10-15 22:23:00,
2013-10-15 18:28:00,64.5,57.5,26.68,NNE,24,0.0,0.0,78,0.00,,SKC,0.00,VWS V14.01,2013-10-15 22:28:00,
2013-10-15 18:33:00,64.3,57.3,26.68,NNE,24,0.0,0.0,78,0.00,,SKC,0.00,VWS V14.01,2013-10-15 22:33:00,
2013-10-15 18:38:00,64.0,57.0,26.68,NNE,24,0.0,0.0,78,0.00,,SKC,0.00,VWS V14.01,2013-10-15 22:38:00,
2013-10-15 18:43:00,63.8,56.8,26.68,NNE,24,0.0,0.0,78,0.00,,SKC,0.00,VWS V14.01,2013-10-15 22:43:00,
2013-10-15 18:48:00,63.5,56.9,26.68,NNE,24,0.0,1.0,79,0.00,,SKC,0.00,VWS V14.01,2013-10-15 22:48:00,
2013-10-15 18:53:00,63.2,56.6,26.68,NNE,24,0.0,0.0,79,0.00,,SKC,0.00,VWS V14.01,2013-10-15 22:53:00,
2013-10-15 18:58:00,62.9,56.6,26.68,NNE,24,0.0,0.0,80,0.00,,SKC,0.00,VWS V14.01,2013-10-15 22:58:00,
2013-10-15 19:03:00,62.5,56.2,26.68,NNE,24,0.0,0.0,80,0.00,,SKC,0.00,VWS V14.01,2013-10-15 23:03:00,
2013-10-15 19:07:00,62.2,56.3,26.68,NNE,24,0.0,0.0,81,0.00,,SKC,0.00,VWS V14.01,2013-10-15 23:07:00,
2013-10-15 19:12:00,61.9,56.3,26.68,NNE,24,0.0,0.0,82,0.00,,SKC,0.00,VWS V14.01,2013-10-15 23:12:00,
2013-10-15 19:17:00,61.6,56.1,26.68,NNE,24,0.0,1.0,82,0.00,,SKC,0.00,VWS V14.01,2013-10-15 23:17:00,
2013-10-15 19:22:00,61.3,55.8,26.68,NNE,24,0.0,3.0,82,0.00,,SKC,0.00,VWS V14.01,2013-10-15 23:22:00,
2013-10-15 19:27:00,61.2,56.0,26.68,NNE,24,0.0,1.0,83,0.00,,SKC,0.00,VWS V14.01,2013-10-15 23:27:00,
2013-10-15 19:32:00,61.0,55.8,26.68,NNE,24,0.0,0.0,83,0.00,,SKC,0.00,VWS V14.01,2013-10-15 23:32:00,
2013-10-15 19:37:00,60.9,55.7,26.68,NNE,24,0.0,0.0,83,0.00,,SKC,0.00,VWS V14.01,2013-10-15 23:37:00,
2013-10-15 19:42:00,60.7,55.8,26.68,NNE,24,1.0,1.0,84,0.00,,SKC,0.00,VWS V14.01,2013-10-15 23:42:00,
2013-10-15 19:47:00,60.5,55.7,26.68,NNE,24,0.0,0.0,84,0.00,,SKC,0.00,VWS V14.01,2013-10-15 23:47:00,
2013-10-15 19:52:00,60.3,55.8,26.68,NNE,24,0.0,0.0,85,0.00,,SKC,0.00,VWS V14.01,2013-10-15 23:52:00,
2013-10-15 19:57:00,60.0,55.5,26.68,NNE,24,0.0,0.0,85,0.00,,SKC,0.00,VWS V14.01,2013-10-15 23:57:00,
2013-10-15 20:02:00,59.8,55.6,26.68,NNE,24,0.0,0.0,86,0.00,,SKC,0.00,VWS V14.01,2013-10-16 00:02:00,
2013-10-15 20:07:00,59.5,55.3,26.68,NNE,24,0.0,0.0,86,0.00,,SKC,0.00,VWS V14.01,2013-10-16 00:07:00,
2013-10-15 20:12:00,59.2,55.3,26.68,NNE,24,0.0,0.0,87,0.00,,SKC,0.00,VWS V14.01,2013-10-16 00:12:00,
2013-10-15 20:17:00,59.0,55.1,26.68,NNE,24,0.0,0.0,87,0.00,,SKC,0.00,VWS V14.01,2013-10-16 00:17:00,
2013-10-15 20:22:00,59.0,55.5,26.68,NNE,24,0.0,0.0,88,0.00,,SKC,0.00,VWS V14.01,2013-10-16 00:22:00,
2013-10-15 20:27:00,59.0,55.5,26.68,NNE,24,0.0,0.0,88,0.00,,SKC,0.00,VWS V14.01,2013-10-16 00:27:00,
2013-10-15 20:32:00,58.8,55.6,26.68,NNE,24,0.0,0.0,89,0.00,,SKC,0.00,VWS V14.01,2013-10-16 00:32:00,
2013-10-15 20:37:00,58.6,55.4,26.68,NNE,24,0.0,0.0,89,0.00,,SKC,0.00,VWS V14.01,2013-10-16 00:37:00,
2013-10-15 20:42:00,58.5,55.3,26.68,NNE,24,0.0,0.0,89,0.00,,SKC,0.00,VWS V14.01,2013-10-16 00:42:00,
2013-10-15 20:47:00,58.4,55.2,26.68,NNE,24,0.0,0.0,89,0.00,,SKC,0.00,VWS V14.01,2013-10-16 00:47:00,
2013-10-15 20:52:00,58.2,55.3,26.68,NNE,24,0.0,0.0,90,0.00,,SKC,0.00,VWS V14.01,2013-10-16 00:52:00,
2013-10-15 20:57:00,58.1,55.2,26.68,NNE,24,0.0,0.0,90,0.00,,SKC,0.00,VWS V14.01,2013-10-16 00:57:00,
2013-10-15 21:02:00,58.1,55.2,26.68,NNE,24,0.0,0.0,90,0.00,,SKC,0.00,VWS V14.01,2013-10-16 01:02:00,
2013-10-15 21:07:00,58.0,55.1,26.68,NNE,24,0.0,0.0,90,0.00,,SKC,0.00,VWS V14.01,2013-10-16 01:07:00,
2013-10-15 21:12:00,57.9,55.0,26.68,NNE,24,0.0,0.0,90,0.00,,SKC,0.00,VWS V14.01,2013-10-16 01:12:00,
2013-10-15 21:17:00,57.7,54.8,26.68,NNE,24,0.0,0.0,90,0.00,,SKC,0.00,VWS V14.01,2013-10-16 01:17:00,
2013-10-15 21:22:00,57.5,54.6,26.68,NNE,24,0.0,0.0,90,0.00,,SKC,0.00,VWS V14.01,2013-10-16 01:22:00,
2013-10-15 21:27:00,57.4,54.5,26.68,NNE,24,0.0,0.0,90,0.00,,SKC,0.00,VWS V14.01,2013-10-16 01:27:00,
2013-10-15 21:32:00,57.3,54.7,26.68,NNE,24,0.0,0.0,91,0.00,,SKC,0.00,VWS V14.01,2013-10-16 01:32:00,
2013-10-15 21:37:00,57.3,54.7,26.68,NNE,24,0.0,0.0,91,0.00,,SKC,0.00,VWS V14.01,2013-10-16 01:37:00,
2013-10-15 21:42:00,57.2,54.6,26.68,NNE,24,0.0,0.0,91,0.00,,SKC,0.00,VWS V14.01,2013-10-16 01:42:00,
2013-10-15 21:47:00,57.3,54.7,26.68,NNE,24,0.0,0.0,91,0.00,,SKC,0.00,VWS V14.01,2013-10-16 01:47:00,
2013-10-15 21:52:00,57.3,55.0,26.68,NNE,24,0.0,0.0,92,0.00,,SKC,0.00,VWS V14.01,2013-10-16 01:52:00,
2013-10-15 21:57:00,57.5,55.2,26.68,NNE,24,0.0,0.0,92,0.00,,SKC,0.00,VWS V14.01,2013-10-16 01:57:00,
2013-10-15 22:02:00,57.7,55.4,26.68,NNE,24,0.0,0.0,92,0.00,,SKC,0.00,VWS V14.01,2013-10-16 02:02:00,
2013-10-15 22:07:00,57.8,55.2,26.68,NNE,24,0.0,0.0,91,0.00,,SKC,0.00,VWS V14.01,2013-10-16 02:07:00,
2013-10-15 22:12:00,57.9,55.3,26.68,NNE,24,0.0,0.0,91,0.00,,SKC,0.00,VWS V14.01,2013-10-16 02:12:00,
2013-10-15 22:17:00,58.0,55.4,26.68,NNE,24,0.0,0.0,91,0.00,,SKC,0.00,VWS V14.01,2013-10-16 02:17:00,
2013-10-15 22:22:00,58.1,55.5,26.68,NNE,24,0.0,0.0,91,0.00,,SKC,0.00,VWS V14.01,2013-10-16 02:22:00,
2013-10-15 22:27:00,58.2,55.6,26.68,NNE,24,0.0,0.0,91,0.00,,SKC,0.00,VWS V14.01,2013-10-16 02:27:00,
2013-10-15 22:32:00,58.2,55.6,26.68,NNE,24,0.0,0.0,91,0.00,,SKC,0.00,VWS V14.01,2013-10-16 02:32:00,
2013-10-15 22:37:00,58.4,55.5,26.68,NNE,24,0.0,0.0,90,0.00,,SKC,0.00,VWS V14.01,2013-10-16 02:37:00,
2013-10-15 22:42:00,58.5,55.9,26.68,NNE,24,0.0,1.0,91,0.00,,SKC,0.00,VWS V14.01,2013-10-16 02:42:00,
2013-10-15 22:47:00,58.5,55.6,26.68,NNE,24,0.0,0.0,90,0.00,,SKC,0.00,VWS V14.01,2013-10-16 02:47:00,
2013-10-15 22:52:00,58.4,55.5,26.68,NNE,24,0.0,0.0,90,0.00,,SKC,0.00,VWS V14.01,2013-10-16 02:52:00,
2013-10-15 22:57:00,58.3,55.4,26.68,NNE,24,0.0,0.0,90,0.00,,SKC,0.00,VWS V14.01,2013-10-16 02:57:00,
2013-10-15 23:02:00,58.3,55.7,26.68,NNE,24,0.0,0.0,91,0.00,,SKC,0.00,VWS V14.01,2013-10-16 03:02:00,
2013-10-15 23:07:00,58.3,55.7,26.68,NNE,24,0.0,0.0,91,0.00,,SKC,0.00,VWS V14.01,2013-10-16 03:07:00,
2013-10-15 23:12:00,58.3,55.7,26.68,NNE,24,0.0,0.0,91,0.00,,SKC,0.00,VWS V14.01,2013-10-16 03:12:00,
2013-10-15 23:17:00,58.3,55.7,26.68,NNE,24,0.0,0.0,91,0.00,,SKC,0.00,VWS V14.01,2013-10-16 03:17:00,
2013-10-15 23:22:00,58.2,55.6,26.68,NNE,24,0.0,0.0,91,0.00,,SKC,0.00,VWS V14.01,2013-10-16 03:22:00,
2013-10-15 23:27:00,58.2,55.6,26.68,NNE,24,0.0,0.0,91,0.00,,SKC,0.00,VWS V14.01,2013-10-16 03:27:00,
2013-10-15 23:32:00,58.1,55.5,26.68,NNE,24,0.0,0.0,91,0.00,,SKC,0.00,VWS V14.01,2013-10-16 03:32:00,
2013-10-15 23:37:00,58.0,55.4,26.68,NNE,24,0.0,0.0,91,0.00,,SKC,0.00,VWS V14.01,2013-10-16 03:37:00,
2013-10-15 23:42:00,57.9,55.3,26.68,NNE,24,0.0,0.0,91,0.00,,SKC,0.00,VWS V14.01,2013-10-16 03:42:00,
2013-10-15 23:47:00,57.8,55.2,26.68,NNE,24,0.0,0.0,91,0.00,,SKC,0.00,VWS V14.01,2013-10-16 03:47:00,
2013-10-15 23:52:00,57.6,55.0,26.68,NNE,24,0.0,0.0,91,0.00,,SKC,0.00,VWS V14.01,2013-10-16 03:52:00,
2013-10-15 23:57:00,57.5,54.9,26.68,NNE,24,0.0,0.0,91,0.00,,SKC,0.00,VWS V14.01,2013-10-16 03:57:00,